Time;durP1;ratioP1;P1;durP2;ratioP2;P2;SDS_P1;SDS_P2;PMS_P1;PMS_P2;Temp;Humidity;BMP_temperature;BMP_pressure;BME280_temperature;BME280_humidity;BME280_pressure;Samples;Min_cycle;Max_cycle;Signal;HPM_P1;HPM_P2
2021/06/03 00:01:53;;;;;;;5.03;4.25;;;;;;;17.57;71.66;100307.28;1831152;77;22156;-66
2021/06/03 00:04:31;;;;;;;5.17;4.67;;;;;;;17.56;71.70;100308.22;1853221;77;22231;-65
2021/06/03 00:07:04;;;;;;;7.03;4.33;;;;;;;17.57;71.65;100304.63;1829162;77;22642;-54
2021/06/03 00:09:38;;;;;;;5.62;4.17;;;;;;;17.53;71.79;100304.34;1834709;77;22203;-55
2021/06/03 00:12:12;;;;;;;8.08;4.37;;;;;;;17.52;71.69;100309.27;1827433;77;22202;-55
2021/06/03 00:14:45;;;;;;;4.83;4.10;;;;;;;17.51;71.67;100307.06;1834854;77;22204;-55
2021/06/03 00:17:19;;;;;;;5.97;3.90;;;;;;;17.53;71.65;100307.02;1844239;77;22625;-68
2021/06/03 00:19:54;;;;;;;6.87;5.92;;;;;;;17.59;71.38;100309.86;1819270;77;27998;-54
2021/06/03 00:22:42;;;;;;;5.10;4.03;;;;;;;17.54;71.43;100323.38;1747449;81;21150;-67
2021/06/03 00:25:15;;;;;;;6.40;4.28;;;;;;;17.54;71.44;100316.25;1853079;77;22602;-66
2021/06/03 00:27:49;;;;;;;6.60;3.92;;;;;;;17.55;71.48;100319.78;1819194;77;22214;-66
2021/06/03 00:30:23;;;;;;;5.20;3.45;;;;;;;17.52;71.42;100316.77;1834709;77;22600;-65
2021/06/03 00:32:58;;;;;;;5.95;3.80;;;;;;;17.52;71.37;100315.45;1790984;77;22179;-66
2021/06/03 00:35:31;;;;;;;5.08;4.05;;;;;;;17.50;71.36;100318.63;1834724;77;22619;-65
2021/06/03 00:38:05;;;;;;;6.50;4.03;;;;;;;17.51;71.40;100312.86;1815544;77;22186;-65
2021/06/03 00:40:51;;;;;;;6.17;4.05;;;;;;;17.46;71.47;100318.36;1761913;81;21137;-69
2021/06/03 00:43:25;;;;;;;6.62;3.80;;;;;;;17.47;71.51;100313.92;1811268;77;22171;-67
2021/06/03 00:45:59;;;;;;;5.40;3.87;;;;;;;17.46;71.47;100325.02;1834755;77;22212;-54
2021/06/03 00:48:33;;;;;;;4.87;3.52;;;;;;;17.47;71.52;100323.23;1809247;77;22190;-67
2021/06/03 00:51:08;;;;;;;4.45;3.22;;;;;;;17.48;71.37;100324.48;1823922;77;22583;-54
2021/06/03 00:53:43;;;;;;;6.10;3.47;;;;;;;17.51;71.21;100325.69;1807319;77;22179;-54
2021/06/03 00:56:16;;;;;;;5.33;3.75;;;;;;;17.50;71.26;100325.77;1824953;77;22186;-55
2021/06/03 00:58:50;;;;;;;4.47;3.47;;;;;;;17.49;71.22;100323.55;1804609;77;22170;-54
2021/06/03 01:01:23;;;;;;;5.87;3.60;;;;;;;17.49;71.22;100319.56;1844071;77;22198;-54
2021/06/03 01:04:16;;;;;;;5.75;3.77;;;;;;;17.42;71.29;100324.77;1704017;83;21289;-55
2021/06/03 01:06:48;;;;;;;5.78;3.95;;;;;;;16.82;73.32;100327.12;1845909;77;22602;-65
2021/06/03 01:09:37;;;;;;;4.97;3.52;;;;;;;17.43;71.64;100330.48;1832482;77;22139;-66
2021/06/03 01:12:25;;;;;;;6.05;4.37;;;;;;;17.56;71.01;100318.86;1827646;77;22170;-54
2021/06/03 01:15:02;;;;;;;5.40;3.83;;;;;;;17.41;71.53;100327.47;1834768;77;22187;-66
2021/06/03 01:17:38;;;;;;;4.95;3.72;;;;;;;17.42;71.44;100333.20;1822139;77;22218;-54
2021/06/03 01:20:12;;;;;;;8.23;4.60;;;;;;;17.42;71.50;100334.08;1834728;77;22622;-54
2021/06/03 01:23:09;;;;;;;5.75;4.17;;;;;;;17.34;71.79;100331.72;1819649;77;22689;-54
2021/06/03 01:25:43;;;;;;;7.62;4.78;;;;;;;17.44;71.43;100337.98;1837989;77;22140;-54
2021/06/03 01:28:17;;;;;;;5.08;4.10;;;;;;;17.46;71.27;100339.64;1830155;77;22193;-54
2021/06/03 01:30:53;;;;;;;7.87;5.20;;;;;;;17.46;71.26;100339.64;1834759;77;22617;-54
2021/06/03 01:33:29;;;;;;;6.25;4.50;;;;;;;17.47;71.14;100341.86;1810746;77;22183;-54
2021/06/03 01:36:05;;;;;;;7.58;6.78;;;;;;;17.46;71.23;100340.97;1811509;77;28016;-54
2021/06/03 01:38:53;;;;;;;10.23;5.45;;;;;;;17.39;71.42;100342.19;1794527;78;21154;-55
2021/06/03 01:41:26;;;;;;;6.58;5.08;;;;;;;17.39;71.41;100336.86;1834607;77;22187;-54
2021/06/03 01:43:59;;;;;;;6.35;5.12;;;;;;;17.36;71.28;100331.19;1813683;77;22627;-54
2021/06/03 01:46:33;;;;;;;6.55;5.42;;;;;;;17.29;71.42;100337.69;1853136;77;22175;-54
2021/06/03 01:49:22;;;;;;;6.55;4.62;;;;;;;17.22;71.34;100340.22;1762073;80;21133;-55
2021/06/03 01:52:00;;;;;;;6.78;4.72;;;;;;;17.21;71.41;100342.48;1831247;77;22179;-54
2021/06/03 01:54:30;;;;;;;6.45;4.37;;;;;;;17.20;71.34;100344.25;1821001;77;22189;-55
2021/06/03 01:57:05;;;;;;;8.33;4.25;;;;;;;16.92;71.84;100345.78;1824025;77;22173;-54
2021/06/03 01:59:38;;;;;;;6.47;4.40;;;;;;;17.05;71.43;100339.54;1834744;77;22167;-54
2021/06/03 02:02:11;;;;;;;7.45;4.33;;;;;;;17.16;71.01;100343.13;1820272;77;22158;-54
2021/06/03 02:04:48;;;;;;;10.18;4.70;;;;;;;17.12;70.96;100345.50;1853112;77;22175;-54
2021/06/03 02:07:36;;;;;;;6.47;4.30;;;;;;;17.14;70.59;100348.48;1751474;81;21280;-56
2021/06/03 02:10:11;;;;;;;6.30;4.20;;;;;;;17.01;70.89;100346.79;1853111;77;22178;-54
2021/06/03 02:13:07;;;;;;;6.28;4.00;;;;;;;16.95;70.98;100345.66;1817046;77;22214;-54
2021/06/03 02:16:04;;;;;;;7.15;5.15;;;;;;;16.91;70.93;100341.39;1814499;77;27901;-54
2021/06/03 02:19:05;;;;;;;7.12;3.90;;;;;;;16.89;70.71;100344.57;1808176;77;22622;-54
2021/06/03 02:21:41;;;;;;;6.28;3.77;;;;;;;16.86;70.54;100347.34;1832896;77;22543;-54
2021/06/03 02:24:15;;;;;;;5.03;3.47;;;;;;;16.80;70.56;100343.15;1847855;78;22179;-54
2021/06/03 02:26:48;;;;;;;4.90;3.50;;;;;;;16.79;70.45;100355.55;1808562;77;22186;-54
2021/06/03 02:29:21;;;;;;;6.95;3.72;;;;;;;16.82;70.28;100357.25;1821337;77;22536;-54
2021/06/03 02:32:09;;;;;;;6.53;3.05;;;;;;;16.74;70.09;100357.55;1760547;81;21277;-55
2021/06/03 02:34:44;;;;;;;6.40;3.58;;;;;;;16.70;70.26;100355.94;1852159;77;22590;-54
2021/06/03 02:37:18;;;;;;;9.25;4.65;;;;;;;16.63;70.38;100353.95;1810630;77;28463;-54
2021/06/03 02:40:03;;;;;;;6.55;3.33;;;;;;;16.65;70.28;100357.42;1822016;77;22139;-54
2021/06/03 02:42:39;;;;;;;7.95;4.37;;;;;;;16.67;70.11;100356.05;1806503;77;28077;-54
2021/06/03 02:45:32;;;;;;;6.03;3.42;;;;;;;16.66;70.19;100356.97;1831599;77;22205;-55
2021/06/03 02:48:19;;;;;;;5.60;3.30;;;;;;;16.63;70.12;100366.39;1749693;80;21590;-55
2021/06/03 02:50:52;;;;;;;5.58;3.27;;;;;;;16.63;70.13;100365.06;1853134;77;22139;-54
2021/06/03 02:53:25;;;;;;;4.40;3.10;;;;;;;16.60;70.05;100370.48;1828546;77;22183;-54
2021/06/03 02:55:59;;;;;;;6.50;3.00;;;;;;;16.57;70.07;100365.28;1833566;77;22183;-54
2021/06/03 02:58:33;;;;;;;6.05;3.20;;;;;;;16.58;70.01;100368.34;1809369;77;22194;-54
2021/06/03 03:01:06;;;;;;;6.35;3.08;;;;;;;16.54;70.06;100371.59;1834779;77;22171;-54
2021/06/03 03:03:39;;;;;;;4.62;2.75;;;;;;;16.53;70.02;100372.96;1804900;77;22603;-54
2021/06/03 03:06:13;;;;;;;6.62;3.30;;;;;;;16.54;69.94;100371.59;1842192;77;22158;-54
2021/06/03 03:08:46;;;;;;;6.80;3.50;;;;;;;16.52;69.89;100378.75;1806265;77;22183;-54
2021/06/03 03:11:19;;;;;;;8.28;3.70;;;;;;;16.50;69.94;100369.50;1833847;77;22579;-54
2021/06/03 03:13:53;;;;;;;5.35;3.75;;;;;;;16.28;70.49;100371.22;1804756;77;22190;-54
2021/06/03 03:16:26;;;;;;;5.22;3.00;;;;;;;16.37;70.45;100372.19;1820733;77;22155;-54
2021/06/03 03:19:00;;;;;;;8.00;3.67;;;;;;;16.57;69.70;100372.78;1819222;77;22202;-54
2021/06/03 03:21:35;;;;;;;4.50;3.10;;;;;;;16.01;71.23;100371.27;1820149;77;22607;-66
2021/06/03 03:24:09;;;;;;;10.10;3.35;;;;;;;16.50;69.98;100376.14;1801036;77;22159;-68
2021/06/03 03:26:43;;;;;;;5.37;2.52;;;;;;;16.63;69.42;100364.58;1816536;77;22656;-67
2021/06/03 03:29:17;;;;;;;7.40;3.58;;;;;;;16.70;69.15;100363.91;1816987;77;22152;-66
2021/06/03 03:31:50;;;;;;;6.17;3.40;;;;;;;16.75;69.04;100374.34;1817877;77;22589;-67
2021/06/03 03:34:24;;;;;;;5.05;2.67;;;;;;;16.73;69.06;100374.42;1816693;77;22163;-66
2021/06/03 03:36:58;;;;;;;10.35;3.05;;;;;;;16.41;70.14;100380.45;1826297;77;22203;-67
2021/06/03 03:39:31;;;;;;;16.82;3.90;;;;;;;16.60;69.59;100381.11;1831370;77;22230;-66
2021/06/03 03:42:17;;;;;;;5.40;3.15;;;;;;;16.60;69.50;100393.07;1781322;80;21281;-66
2021/06/03 03:44:51;;;;;;;4.42;2.60;;;;;;;16.03;71.39;100387.56;1834736;77;22179;-65
2021/06/03 03:47:25;;;;;;;4.90;2.95;;;;;;;16.25;71.12;100387.27;1823438;77;22171;-66
2021/06/03 03:49:58;;;;;;;7.15;3.22;;;;;;;16.72;69.47;100381.11;1821612;77;22599;-66
2021/06/03 03:52:45;;;;;;;6.55;3.40;;;;;;;16.75;69.27;100387.64;1760130;80;21770;-66
2021/06/03 03:55:18;;;;;;;6.58;3.05;;;;;;;16.84;69.18;100379.77;1820311;77;22617;-66
2021/06/03 03:57:52;;;;;;;8.05;2.80;;;;;;;16.85;69.01;100383.71;1818514;77;22190;-67
2021/06/03 04:00:28;;;;;;;3.77;2.65;;;;;;;16.89;68.91;100385.77;1837938;77;22185;-65
2021/06/03 04:03:05;;;;;;;5.78;3.22;;;;;;;16.86;68.92;100387.22;1816225;77;22182;-65
2021/06/03 04:05:39;;;;;;;6.65;3.00;;;;;;;16.88;68.95;100394.23;1834774;77;20258;-64
2021/06/03 04:08:12;;;;;;;6.05;2.77;;;;;;;16.92;68.89;100391.86;1813853;77;22183;-64
2021/06/03 04:10:45;;;;;;;5.92;3.10;;;;;;;16.99;68.68;100393.84;1826985;77;22151;-66
2021/06/03 04:13:26;;;;;;;5.67;3.00;;;;;;;17.06;68.51;100403.31;1810200;77;22206;-65
2021/06/03 04:16:13;;;;;;;5.72;2.80;;;;;;;17.07;68.36;100406.83;1762083;81;21154;-66
2021/06/03 04:18:50;;;;;;;4.45;2.70;;;;;;;17.12;68.23;100396.03;1798375;77;22202;-54
2021/06/03 04:21:23;;;;;;;7.03;3.52;;;;;;;17.09;68.14;100401.87;1852882;77;22179;-54
2021/06/03 04:23:57;;;;;;;6.97;2.98;;;;;;;17.14;68.09;100404.33;1821382;77;22182;-64
2021/06/03 04:26:43;;;;;;;5.60;3.30;;;;;;;17.12;67.87;100413.31;1791809;80;21122;-65
2021/06/03 04:29:16;;;;;;;5.78;3.25;;;;;;;17.13;67.63;100405.73;1819803;77;22197;-54
2021/06/03 04:31:50;;;;;;;4.83;3.20;;;;;;;17.14;67.65;100408.80;1850541;77;22203;-54
2021/06/03 04:34:23;;;;;;;6.22;2.92;;;;;;;16.88;68.35;100407.52;1842809;77;22183;-63
2021/06/03 04:36:57;;;;;;;4.30;3.15;;;;;;;16.35;70.28;100410.77;1829830;77;22144;-62
2021/06/03 04:39:31;;;;;;;4.53;2.40;;;;;;;16.31;70.31;100410.48;1821042;77;22167;-54
2021/06/03 04:42:06;;;;;;;6.28;2.77;;;;;;;16.43;70.36;100412.30;1803939;77;22223;-53
2021/06/03 04:44:40;;;;;;;5.92;2.90;;;;;;;17.04;68.18;100408.27;1834562;77;22184;-62
2021/06/03 04:47:14;;;;;;;7.25;3.85;;;;;;;17.11;68.08;100416.42;1807552;77;22179;-63
2021/06/03 04:49:47;;;;;;;7.45;2.95;;;;;;;17.13;68.13;100416.37;1834411;77;22583;-62
2021/06/03 04:52:28;;;;;;;4.67;2.70;;;;;;;17.17;68.01;100411.34;1825251;77;22186;-63
2021/06/03 04:55:13;;;;;;;7.65;3.08;;;;;;;17.19;67.77;100418.80;1831258;77;22579;-63
2021/06/03 04:57:46;;;;;;;5.75;2.70;;;;;;;17.22;67.71;100416.02;1813479;77;22178;-62
2021/06/03 05:00:30;;;;;;;5.00;2.98;;;;;;;17.28;67.42;100422.88;1834863;77;22179;-62
2021/06/03 05:03:05;;;;;;;8.95;2.75;;;;;;;17.37;67.28;100422.52;1815815;77;22194;-63
2021/06/03 05:05:38;;;;;;;7.97;3.10;;;;;;;17.31;67.42;100422.28;1792245;77;22158;-62
2021/06/03 05:08:12;;;;;;;5.40;3.00;;;;;;;17.37;67.40;100420.70;1814019;77;22191;-62
2021/06/03 05:10:46;;;;;;;5.97;2.87;;;;;;;17.45;67.51;100427.52;1834766;77;22630;-60
2021/06/03 05:13:19;;;;;;;5.67;2.87;;;;;;;17.51;67.74;100421.95;1825386;77;22197;-62
2021/06/03 05:15:53;;;;;;;4.40;2.72;;;;;;;17.56;67.49;100421.75;1829596;77;22131;-62
2021/06/03 05:18:26;;;;;;;6.37;2.95;;;;;;;17.61;67.40;100419.78;1823672;77;22198;-61
2021/06/03 05:21:05;;;;;;;4.95;2.83;;;;;;;17.66;66.96;100424.45;1849888;77;22155;-62
2021/06/03 05:23:39;;;;;;;5.25;2.70;;;;;;;17.75;67.14;100424.52;1798859;77;22186;-62
2021/06/03 05:26:13;;;;;;;5.10;3.00;;;;;;;17.58;67.85;100430.55;1834728;77;22611;-61
2021/06/03 05:28:52;;;;;;;4.60;2.67;;;;;;;17.83;66.79;100424.63;1806251;77;22194;-62
2021/06/03 05:31:26;;;;;;;5.65;2.60;;;;;;;17.91;66.71;100430.06;1852166;77;22135;-62
2021/06/03 05:34:00;;;;;;;5.85;2.50;;;;;;;17.96;66.31;100429.41;1819267;77;22810;-61
2021/06/03 05:36:33;;;;;;;6.45;2.95;;;;;;;17.97;66.27;100437.35;1853133;77;22178;-60
2021/06/03 05:39:07;;;;;;;6.75;2.90;;;;;;;17.99;66.07;100435.97;1853111;77;22195;-59
2021/06/03 05:41:41;;;;;;;3.60;2.27;;;;;;;18.03;65.88;100432.73;1827699;77;22120;-61
2021/06/03 05:44:14;;;;;;;4.85;2.72;;;;;;;18.06;66.12;100434.78;1824552;77;22199;-60
2021/06/03 05:46:48;;;;;;;7.08;3.67;;;;;;;18.11;65.97;100439.91;1851195;77;22202;-61
2021/06/03 05:49:40;;;;;;;7.85;3.37;;;;;;;18.15;65.39;100440.66;1832555;77;22211;-60
2021/06/03 05:52:14;;;;;;;8.48;3.33;;;;;;;18.19;65.41;100442.26;1845258;77;22190;-61
2021/06/03 05:54:47;;;;;;;5.72;3.00;;;;;;;18.23;65.45;100445.20;1826663;77;22139;-59
2021/06/03 05:57:21;;;;;;;6.00;3.00;;;;;;;18.23;65.29;100442.53;1824825;77;22230;-59
2021/06/03 05:59:54;;;;;;;7.95;3.70;;;;;;;18.33;65.24;100443.84;1827832;77;22155;-60
2021/06/03 06:02:32;;;;;;;10.03;3.80;;;;;;;18.39;65.24;100453.38;1819687;77;22217;-59
2021/06/03 06:08:11;;;;;;;5.17;3.17;;;;;;;18.51;64.94;100455.52;1813490;77;22213;-58
2021/06/03 06:10:44;;;;;;;6.00;3.83;;;;;;;18.59;64.94;100449.83;1853116;77;22187;-58
2021/06/03 06:13:30;;;;;;;5.97;2.98;;;;;;;18.62;64.05;100454.14;1751747;81;21111;-60
2021/06/03 06:16:04;;;;;;;10.18;4.00;;;;;;;18.70;64.05;100449.34;1816553;77;22194;-59
2021/06/03 06:18:38;;;;;;;7.22;2.80;;;;;;;18.74;62.90;100449.60;1794593;77;22649;-59
2021/06/03 06:21:26;;;;;;;8.28;3.42;;;;;;;18.79;63.42;100452.92;1761746;81;21557;-61
2021/06/03 06:23:59;;;;;;;7.75;3.30;;;;;;;18.88;63.35;100451.18;1820931;77;22197;-60
2021/06/03 06:26:52;;;;;;;6.00;3.10;;;;;;;18.91;62.94;100454.16;1822343;77;22211;-59
2021/06/03 06:29:25;;;;;;;9.00;3.10;;;;;;;18.93;62.98;100446.95;1834766;77;22156;-59
2021/06/03 06:31:59;;;;;;;6.30;3.20;;;;;;;19.02;62.94;100453.69;1831742;77;22164;-58
2021/06/03 06:34:32;;;;;;;8.08;3.35;;;;;;;19.08;62.71;100448.55;1834594;77;22183;-58
2021/06/03 06:37:05;;;;;;;7.05;3.22;;;;;;;19.07;62.03;100446.83;1828969;77;22622;-59
2021/06/03 06:39:39;;;;;;;11.53;3.70;;;;;;;19.08;62.06;100465.41;1833973;77;22172;-59
2021/06/03 06:42:12;;;;;;;6.60;2.98;;;;;;;19.12;62.11;100456.33;1827371;77;22199;-58
2021/06/03 06:44:46;;;;;;;8.05;3.72;;;;;;;19.16;62.29;100456.58;1837521;77;22159;-58
2021/06/03 06:47:19;;;;;;;11.75;3.17;;;;;;;19.23;62.31;100455.81;1825854;77;22218;-59
2021/06/03 06:49:53;;;;;;;5.37;2.90;;;;;;;19.26;61.68;100450.34;1852001;77;22179;-59
2021/06/03 06:52:26;;;;;;;4.67;2.72;;;;;;;19.29;61.45;100454.19;1842445;77;22214;-60
2021/06/03 06:55:00;;;;;;;6.20;3.10;;;;;;;19.36;61.20;100447.23;1826670;77;22124;-59
2021/06/03 06:57:33;;;;;;;5.55;3.10;;;;;;;19.40;61.50;100457.70;1840829;77;22629;-60
2021/06/03 07:00:09;;;;;;;4.97;2.50;;;;;;;19.46;60.85;100461.39;1824261;77;22211;-58
2021/06/03 07:02:43;;;;;;;15.03;3.55;;;;;;;19.49;60.33;100455.51;1838686;77;20129;-59
2021/06/03 07:05:29;;;;;;;6.10;3.10;;;;;;;19.48;60.31;100460.00;1793037;80;21147;-60
2021/06/03 07:08:02;;;;;;;4.83;2.50;;;;;;;19.50;60.38;100464.80;1816169;77;22187;-59
2021/06/03 07:10:55;;;;;;;21.33;5.60;;;;;;;19.44;60.93;100463.27;1820554;77;22257;-59
2021/06/03 07:13:29;;;;;;;9.60;3.15;;;;;;;19.58;60.32;100465.74;1810108;77;22208;-58
2021/06/03 07:16:04;;;;;;;5.22;2.47;;;;;;;19.66;60.15;100464.91;1853135;77;22915;-59
2021/06/03 07:18:37;;;;;;;7.03;2.62;;;;;;;19.71;59.78;100461.55;1802904;77;22217;-59
2021/06/03 07:21:11;;;;;;;4.97;2.35;;;;;;;19.76;59.68;100455.51;1834768;77;22600;-59
2021/06/03 07:23:45;;;;;;;4.58;2.50;;;;;;;19.82;59.21;100462.34;1824302;77;22244;-59
2021/06/03 07:26:18;;;;;;;5.05;2.15;;;;;;;19.88;59.23;100463.41;1834768;77;22638;-58
2021/06/03 07:28:52;;;;;;;4.50;2.60;;;;;;;19.98;58.69;100463.80;1799541;77;22215;-60
2021/06/03 07:31:25;;;;;;;4.85;2.42;;;;;;;20.06;58.88;100460.77;1847773;78;22179;-59
2021/06/03 07:33:58;;;;;;;4.62;2.47;;;;;;;20.11;58.13;100464.52;1821110;77;22202;-60
2021/06/03 07:36:33;;;;;;;6.35;2.27;;;;;;;20.18;58.49;100457.92;1830755;77;22191;-59
2021/06/03 07:39:06;;;;;;;5.65;2.08;;;;;;;20.25;58.50;100458.46;1834744;77;22204;-61
2021/06/03 07:41:41;;;;;;;5.03;2.10;;;;;;;20.32;57.83;100459.39;1834420;77;22204;-60
2021/06/03 07:44:14;;;;;;;5.22;2.00;;;;;;;20.40;56.93;100459.47;1834740;77;22184;-60
2021/06/03 07:46:49;;;;;;;3.45;2.17;;;;;;;20.42;56.86;100462.47;1820339;77;22563;-58
2021/06/03 07:49:35;;;;;;;5.00;2.27;;;;;;;20.39;56.74;100461.30;1765078;81;21121;-60
2021/06/03 07:52:08;;;;;;;4.80;2.22;;;;;;;20.48;56.82;100462.16;1846633;77;22190;-59
2021/06/03 07:54:41;;;;;;;6.80;2.15;;;;;;;20.48;56.39;100459.94;1832506;77;22180;-61
2021/06/03 07:57:21;;;;;;;4.33;2.60;;;;;;;20.52;56.30;100461.51;1843667;77;22633;-59
2021/06/03 07:59:54;;;;;;;5.37;2.45;;;;;;;20.60;56.54;100455.75;1834739;77;22204;-60
2021/06/03 08:02:27;;;;;;;4.12;2.05;;;;;;;20.71;55.91;100456.53;1824171;77;22218;-60
2021/06/03 08:05:00;;;;;;;5.50;2.40;;;;;;;20.93;56.08;100458.45;1833516;77;22171;-61
2021/06/03 08:07:34;;;;;;;3.47;2.02;;;;;;;21.13;55.84;100460.52;1822596;77;22190;-61
2021/06/03 08:10:10;;;;;;;3.70;2.37;;;;;;;21.30;56.17;100464.05;1834770;77;22204;-58
2021/06/03 08:12:44;;;;;;;7.37;2.30;;;;;;;21.49;55.27;100467.43;1819821;77;22174;-59
2021/06/03 08:15:17;;;;;;;4.37;2.30;;;;;;;21.64;54.96;100470.20;1828002;77;22179;-58
2021/06/03 08:17:52;;;;;;;4.08;2.05;;;;;;;21.75;54.70;100473.62;1836808;77;22193;-60
2021/06/03 08:20:36;;;;;;;6.85;2.30;;;;;;;21.82;54.74;100466.47;1834057;77;22195;-61
2021/06/03 08:23:12;;;;;;;6.35;2.25;;;;;;;21.90;54.09;100466.50;1813977;77;22226;-60
2021/06/03 08:25:45;;;;;;;4.83;2.58;;;;;;;21.98;53.21;100468.26;1795651;77;28035;-59
2021/06/03 08:28:19;;;;;;;4.85;2.02;;;;;;;22.07;52.77;100471.74;1812448;77;22182;-60
2021/06/03 08:30:55;;;;;;;4.47;2.30;;;;;;;21.81;53.71;100475.95;1832217;77;22631;-60
2021/06/03 08:33:29;;;;;;;5.35;2.30;;;;;;;22.01;53.29;100465.41;1803683;77;28080;-60
2021/06/03 08:36:15;;;;;;;2.77;1.90;;;;;;;22.11;52.48;100466.55;1761829;81;21304;-60
2021/06/03 08:38:48;;;;;;;7.37;2.17;;;;;;;22.24;52.20;100458.67;1823645;77;22185;-59
2021/06/03 08:41:21;;;;;;;3.02;1.72;;;;;;;22.57;51.68;100462.08;1813148;77;22151;-60
2021/06/03 08:43:55;;;;;;;7.40;2.30;;;;;;;22.82;50.66;100459.23;1800362;77;22599;-61
2021/06/03 08:46:28;;;;;;;4.22;1.80;;;;;;;23.03;48.09;100448.47;1834798;77;22180;-61
2021/06/03 08:49:04;;;;;;;6.37;1.98;;;;;;;23.23;48.33;100450.40;1819180;77;22256;-61
2021/06/03 08:51:37;;;;;;;4.22;1.90;;;;;;;23.37;48.88;100454.88;1818467;77;28347;-60
2021/06/03 08:54:10;;;;;;;4.72;2.00;;;;;;;23.45;48.11;100450.33;1853105;77;22202;-59
2021/06/03 08:56:44;;;;;;;2.77;1.80;;;;;;;23.53;47.35;100448.51;1833835;77;22580;-62
2021/06/03 08:59:17;;;;;;;7.33;2.00;;;;;;;23.59;46.42;100446.27;1832678;77;22158;-60
2021/06/03 09:01:51;;;;;;;7.05;2.00;;;;;;;23.70;47.41;100448.23;1846094;77;22155;-60
2021/06/03 09:04:24;;;;;;;3.17;1.98;;;;;;;23.78;47.74;100445.52;1834895;77;22164;-60
2021/06/03 09:07:04;;;;;;;5.55;1.90;;;;;;;23.83;46.08;100439.36;1846743;77;22221;-60
2021/06/03 09:09:37;;;;;;;7.53;1.80;;;;;;;23.77;47.76;100451.39;1834781;77;22180;-61
2021/06/03 09:12:15;;;;;;;5.47;1.90;;;;;;;23.73;44.76;100445.34;1827080;77;22678;-61
2021/06/03 09:14:51;;;;;;;3.65;2.00;;;;;;;23.91;46.33;100442.40;1834891;77;22168;-61
2021/06/03 09:17:47;;;;;;;4.42;1.80;;;;;;;23.89;43.99;100444.33;1763711;81;21869;-62
2021/06/03 09:20:25;;;;;;;6.85;1.95;;;;;;;24.12;46.47;100441.92;1834701;77;22148;-60
2021/06/03 09:23:30;;;;;;;5.40;1.90;;;;;;;24.18;46.59;100441.03;1815278;77;22682;-62
2021/06/03 09:26:10;;;;;;;3.10;1.72;;;;;;;24.37;45.84;100434.86;1830721;77;22119;-62
2021/06/03 09:28:47;;;;;;;7.12;2.10;;;;;;;24.57;45.49;100426.73;1806767;77;22190;-62
2021/06/03 09:31:25;;;;;;;7.17;1.98;;;;;;;24.67;44.03;100435.01;1853183;77;22174;-61
2021/06/03 09:34:16;;;;;;;4.35;1.85;;;;;;;24.74;44.19;100444.41;1727273;83;21198;-63
2021/06/03 09:36:54;;;;;;;4.70;1.95;;;;;;;24.85;43.84;100432.39;1832659;77;22575;-62
2021/06/03 09:39:39;;;;;;;2.85;1.50;;;;;;;24.79;42.56;100437.71;1833424;77;22184;-61
2021/06/03 09:42:16;;;;;;;3.02;1.75;;;;;;;24.73;42.97;100434.11;1845627;77;22194;-60
2021/06/03 09:45:12;;;;;;;2.47;1.52;;;;;;;24.62;42.96;100432.66;1824804;77;22611;-56
2021/06/03 09:47:48;;;;;;;5.35;1.40;;;;;;;24.52;42.79;100440.99;1802362;77;22599;-62
2021/06/03 09:50:23;;;;;;;3.17;1.30;;;;;;;24.17;42.98;100430.37;1823326;77;22191;-62
2021/06/03 09:53:15;;;;;;;3.75;1.55;;;;;;;23.97;43.26;100446.48;1769355;80;21150;-62
2021/06/03 09:55:49;;;;;;;3.98;1.60;;;;;;;23.89;44.85;100444.33;1838188;77;22160;-56
2021/06/03 09:58:40;;;;;;;3.90;1.60;;;;;;;23.88;45.39;100440.77;1807519;77;22221;-57
2021/06/03 10:01:38;;;;;;;9.83;2.12;;;;;;;23.87;44.84;100442.22;1829260;77;22132;-61
2021/06/03 10:04:21;;;;;;;4.30;1.80;;;;;;;23.83;43.15;100447.42;1828563;77;22182;-56
2021/06/03 10:07:07;;;;;;;4.72;1.30;;;;;;;23.83;44.45;100447.42;1824574;77;22175;-61
2021/06/03 10:09:57;;;;;;;4.47;1.50;;;;;;;23.87;45.43;100442.22;1826370;77;22627;-62
2021/06/03 10:12:43;;;;;;;2.42;1.50;;;;;;;24.02;44.01;100448.41;1797252;77;22226;-61
2021/06/03 10:15:28;;;;;;;5.03;1.87;;;;;;;24.05;44.43;100453.12;1818857;77;22228;-57
2021/06/03 10:18:14;;;;;;;4.53;1.50;;;;;;;24.00;43.17;100445.84;1829742;77;22218;-56
2021/06/03 10:20:53;;;;;;;6.05;1.52;;;;;;;23.91;41.92;100451.30;1831500;77;22197;-56
2021/06/03 10:23:34;;;;;;;4.28;1.67;;;;;;;23.85;41.04;100456.24;1831864;77;22224;-60
2021/06/03 10:26:29;;;;;;;2.72;1.45;;;;;;;23.73;39.91;100460.13;1783897;79;21735;-57
2021/06/03 10:29:30;;;;;;;4.60;1.70;;;;;;;23.72;39.36;100455.70;1885799;74;22175;-61
2021/06/03 10:32:13;;;;;;;2.90;1.40;;;;;;;23.59;40.10;100458.36;1796017;77;22206;-55
2021/06/03 10:34:53;;;;;;;3.12;1.27;;;;;;;23.57;40.16;100468.84;1821125;77;22195;-55
2021/06/03 10:37:35;;;;;;;3.20;1.30;;;;;;;23.63;40.96;100462.19;1816487;77;22198;-60
2021/06/03 10:40:20;;;;;;;4.47;1.25;;;;;;;23.70;39.74;100468.88;1827659;77;22612;-61
2021/06/03 10:43:04;;;;;;;6.17;1.40;;;;;;;23.80;40.30;100468.66;1863865;76;23011;-60
2021/06/03 10:45:43;;;;;;;2.08;1.40;;;;;;;23.82;40.09;100469.42;1818404;77;22166;-57
2021/06/03 10:48:23;;;;;;;3.22;1.35;;;;;;;23.88;41.03;100460.91;1829773;77;22198;-57
2021/06/03 10:50:59;;;;;;;2.87;1.40;;;;;;;23.98;41.41;100457.62;1848759;77;22159;-56
2021/06/03 10:53:44;;;;;;;4.37;1.70;;;;;;;24.10;41.35;100464.89;1806486;77;22166;-60
2021/06/03 10:56:22;;;;;;;6.22;1.98;;;;;;;24.23;41.01;100474.81;1828586;77;22178;-61
2021/06/03 10:58:56;;;;;;;2.98;1.27;;;;;;;24.32;39.88;100468.78;1800319;77;22166;-62
2021/06/03 11:01:35;;;;;;;3.22;1.87;;;;;;;24.29;39.95;100466.30;1818690;77;22590;-56
2021/06/03 11:04:30;;;;;;;4.03;1.30;;;;;;;24.25;39.96;100467.50;1818686;77;22155;-56
2021/06/03 11:07:05;;;;;;;4.70;1.32;;;;;;;24.22;40.72;100477.13;1829402;77;22611;-56
2021/06/03 11:09:44;;;;;;;4.22;1.30;;;;;;;24.24;40.66;100476.54;1826753;77;22191;-55
2021/06/03 11:12:22;;;;;;;1.87;1.17;;;;;;;24.27;40.92;100479.87;1817010;77;22221;-56
2021/06/03 11:15:10;;;;;;;6.20;1.50;;;;;;;24.23;40.25;100477.50;1819529;77;22157;-56
2021/06/03 11:18:02;;;;;;;2.87;1.57;;;;;;;24.27;40.64;100477.67;1829384;77;22227;-55
2021/06/03 11:20:46;;;;;;;2.55;1.20;;;;;;;24.24;41.25;100481.92;1813402;77;22652;-56
2021/06/03 11:23:41;;;;;;;7.20;1.50;;;;;;;24.11;40.66;100483.20;1814033;77;22181;-56
2021/06/03 11:26:45;;;;;;;3.62;1.70;;;;;;;24.04;40.61;100485.46;1821038;77;22196;-65
2021/06/03 11:29:34;;;;;;;4.30;1.70;;;;;;;23.95;41.35;100487.38;1826812;77;22570;-63
2021/06/03 11:32:16;;;;;;;3.95;1.50;;;;;;;23.95;40.76;100487.38;1810979;77;22221;-66
2021/06/03 11:34:53;;;;;;;5.85;1.47;;;;;;;23.99;41.17;100495.20;1831817;77;22120;-63
2021/06/03 11:37:44;;;;;;;2.40;1.30;;;;;;;23.99;41.36;100503.26;1777170;80;21672;-64
2021/06/03 11:40:24;;;;;;;7.72;1.60;;;;;;;24.04;40.79;100493.06;1819791;77;22138;-64
2021/06/03 11:43:08;;;;;;;5.12;1.57;;;;;;;24.00;41.20;100506.33;1835183;77;22237;-62
2021/06/03 11:45:48;;;;;;;4.78;1.10;;;;;;;23.83;41.11;100506.55;1831934;77;22141;-64
2021/06/03 11:48:34;;;;;;;4.20;1.47;;;;;;;23.68;41.08;100512.45;1803343;77;22209;-65
2021/06/03 11:51:10;;;;;;;4.40;1.30;;;;;;;23.48;40.99;100517.78;1828469;77;22201;-64
2021/06/03 11:53:54;;;;;;;4.15;1.75;;;;;;;23.33;41.72;100515.11;1813340;78;22661;-63
2021/06/03 11:56:40;;;;;;;3.75;1.30;;;;;;;23.19;41.93;100511.93;1820227;77;22171;-61
2021/06/03 11:59:19;;;;;;;4.30;1.37;;;;;;;23.09;41.49;100515.69;1834514;77;22172;-64
2021/06/03 12:01:59;;;;;;;4.00;1.55;;;;;;;22.99;42.28;100514.03;1849266;77;22579;-64
2021/06/03 12:04:36;;;;;;;3.60;1.60;;;;;;;22.88;42.00;100520.58;1840931;77;22209;-63
2021/06/03 12:07:54;;;;;;;3.37;1.47;;;;;;;22.73;42.91;100528.59;1757476;78;21618;-64
2021/06/03 12:10:47;;;;;;;3.60;1.52;;;;;;;22.71;42.83;100522.95;1836868;77;28273;-64
2021/06/03 12:13:20;;;;;;;2.35;1.42;;;;;;;22.83;43.18;100520.84;1808710;77;22191;-62
2021/06/03 12:16:07;;;;;;;3.45;1.45;;;;;;;22.98;43.72;100527.56;1731706;83;21665;-63
2021/06/03 12:18:43;;;;;;;3.62;1.55;;;;;;;23.12;43.89;100523.55;1805835;77;20118;-63